createdAt,value
2022-10-09T00:01:23.290Z,3.17
2022-10-09T00:03:52.081Z,3.15
2022-10-09T00:06:31.260Z,3.17
2022-10-09T00:08:58.838Z,2.92
2022-10-09T00:11:27.649Z,3.00
2022-10-09T00:13:55.659Z,3.38
2022-10-09T00:16:22.893Z,3.08
2022-10-09T00:18:49.851Z,3.22
2022-10-09T00:21:28.821Z,3.33
2022-10-09T00:23:57.871Z,2.80
2022-10-09T00:26:25.106Z,2.97
2022-10-09T00:28:51.623Z,2.85
2022-10-09T00:31:19.116Z,3.38
2022-10-09T00:33:46.159Z,3.47
2022-10-09T00:36:16.048Z,3.78
2022-10-09T00:38:42.842Z,4.18
2022-10-09T00:41:14.098Z,4.38
2022-10-09T00:43:43.204Z,4.40
2022-10-09T00:46:34.945Z,3.88
2022-10-09T00:49:27.887Z,3.55
2022-10-09T00:51:57.161Z,3.58
2022-10-09T00:54:27.178Z,3.35
2022-10-09T00:56:54.790Z,3.30
2022-10-09T00:59:21.749Z,3.35
2022-10-09T01:01:48.348Z,3.20
2022-10-09T01:04:15.017Z,3.22
2022-10-09T01:06:59.539Z,3.35
2022-10-09T01:09:53.892Z,3.50
2022-10-09T01:12:35.510Z,3.03
2022-10-09T01:17:45.318Z,3.70
2022-10-09T01:20:23.509Z,3.22
2022-10-09T01:22:55.940Z,2.78
2022-10-09T01:26:04.259Z,3.22
2022-10-09T01:28:31.298Z,3.17
2022-10-09T01:30:59.988Z,3.50
2022-10-09T01:35:53.686Z,2.88
2022-10-09T01:38:23.253Z,2.67
2022-10-09T01:40:52.375Z,2.70
2022-10-09T01:43:19.355Z,3.00
2022-10-09T01:45:47.745Z,2.83
2022-10-09T01:48:21.893Z,2.97
2022-10-09T01:50:54.401Z,2.45
2022-10-09T01:53:21.602Z,2.97
2022-10-09T01:55:56.424Z,2.92
2022-10-09T01:58:35.065Z,3.05
2022-10-09T02:01:13.829Z,2.47
2022-10-09T02:03:42.925Z,2.53
2022-10-09T02:06:13.181Z,2.45
2022-10-09T02:08:41.480Z,2.90
2022-10-09T02:11:08.366Z,3.15
2022-10-09T02:13:35.876Z,3.30
2022-10-09T02:16:22.333Z,3.30
2022-10-09T02:18:55.972Z,3.35
2022-10-09T02:21:26.936Z,3.85
2022-10-09T02:23:57.663Z,3.60
2022-10-09T02:26:24.931Z,3.72
2022-10-09T02:28:51.566Z,3.42
2022-10-09T02:31:25.697Z,3.42
2022-10-09T02:34:00.715Z,3.13
2022-10-09T02:36:28.714Z,2.95
2022-10-09T02:38:56.465Z,3.85
2022-10-09T02:41:23.814Z,3.03
2022-10-09T02:43:50.787Z,2.88
2022-10-09T02:46:17.957Z,3.65
2022-10-09T02:48:44.985Z,3.45
2022-10-09T02:51:11.569Z,3.65
2022-10-09T02:53:38.061Z,3.55
2022-10-09T02:56:04.587Z,3.67
2022-10-09T02:58:32.532Z,3.83
2022-10-09T03:00:59.090Z,3.60
2022-10-09T03:03:26.123Z,4.07
2022-10-09T03:06:22.714Z,3.22
2022-10-09T03:08:50.615Z,3.45
2022-10-09T03:11:19.041Z,3.55
2022-10-09T03:13:45.819Z,3.90
2022-10-09T03:16:15.063Z,4.10
2022-10-09T03:18:41.642Z,4.00
2022-10-09T03:21:09.637Z,3.47
2022-10-09T03:23:36.405Z,3.42
2022-10-09T03:26:06.769Z,3.70
2022-10-09T03:28:36.228Z,3.15
2022-10-09T03:31:04.019Z,3.35
2022-10-09T03:33:30.640Z,3.40
2022-10-09T03:35:57.155Z,3.72
2022-10-09T03:38:23.619Z,3.47
2022-10-09T03:40:50.016Z,3.13
2022-10-09T03:43:16.431Z,3.85
2022-10-09T03:45:43.322Z,3.20
2022-10-09T03:48:11.314Z,3.40
2022-10-09T03:50:41.143Z,3.38
2022-10-09T03:53:09.024Z,3.65
2022-10-09T03:55:35.656Z,3.50
2022-10-09T03:58:02.180Z,3.90
2022-10-09T04:00:29.171Z,3.53
2022-10-09T04:02:55.644Z,3.50
2022-10-09T04:05:22.449Z,3.42
2022-10-09T04:07:49.122Z,3.50
2022-10-09T04:10:15.682Z,3.33
2022-10-09T04:12:42.442Z,3.53
2022-10-09T04:15:09.811Z,3.30
2022-10-09T04:17:36.544Z,3.38
2022-10-09T04:20:03.546Z,3.13
2022-10-09T04:22:30.020Z,3.80
2022-10-09T04:24:56.422Z,3.63
2022-10-09T04:27:22.809Z,3.72
2022-10-09T04:29:49.250Z,3.85
2022-10-09T04:32:15.636Z,4.05
2022-10-09T04:34:42.034Z,3.40
2022-10-09T04:37:08.468Z,3.53
2022-10-09T04:39:34.835Z,3.75
2022-10-09T04:42:01.238Z,3.70
2022-10-09T04:44:27.660Z,3.28
2022-10-09T04:46:54.063Z,3.75
2022-10-09T04:49:20.470Z,3.40
2022-10-09T04:51:46.958Z,3.83
2022-10-09T04:54:13.598Z,3.08
2022-10-09T04:56:40.006Z,3.60
2022-10-09T04:59:06.404Z,3.33
2022-10-09T05:01:37.837Z,3.58
2022-10-09T05:04:04.807Z,3.70
2022-10-09T05:06:31.578Z,3.40
2022-10-09T05:08:58.027Z,3.50
2022-10-09T05:11:25.981Z,3.85
2022-10-09T05:13:54.879Z,4.20
2022-10-09T05:18:55.339Z,2.97
2022-10-09T05:21:22.546Z,2.90
2022-10-09T05:23:49.432Z,3.63
2022-10-09T05:26:20.705Z,3.15
2022-10-09T05:28:48.055Z,3.20
2022-10-09T05:31:26.449Z,3.28
2022-10-09T05:33:53.805Z,3.13
2022-10-09T05:36:20.732Z,3.20
2022-10-09T05:38:47.864Z,3.28
2022-10-09T05:41:16.354Z,3.20
2022-10-09T05:43:44.914Z,3.90
2022-10-09T05:46:14.601Z,3.90
2022-10-09T05:48:43.584Z,4.03
2022-10-09T05:51:19.871Z,3.60
2022-10-09T05:53:47.476Z,3.80
2022-10-09T05:56:21.345Z,3.05
2022-10-09T05:59:09.080Z,3.08
2022-10-09T06:01:41.022Z,2.83
2022-10-09T06:04:10.939Z,2.70
2022-10-09T06:06:39.267Z,2.72
2022-10-09T06:09:07.644Z,3.25
2022-10-09T06:11:36.920Z,3.75
2022-10-09T06:14:11.306Z,3.90
2022-10-09T06:16:40.305Z,3.28
2022-10-09T06:19:08.130Z,3.40
2022-10-09T06:21:35.128Z,3.22
2022-10-09T06:24:04.300Z,3.65
2022-10-09T06:26:31.806Z,3.25
2022-10-09T06:29:00.837Z,4.60
2022-10-09T06:31:32.423Z,3.92
2022-10-09T06:34:00.529Z,5.53
2022-10-09T06:36:33.035Z,8.55
2022-10-09T06:39:01.445Z,5.70
2022-10-09T06:41:29.563Z,7.20
2022-10-09T06:44:00.220Z,3.65
2022-10-09T06:46:29.877Z,14.82
2022-10-09T06:48:58.424Z,9.10
2022-10-09T06:51:25.544Z,4.70
2022-10-09T06:53:54.053Z,4.75
2022-10-09T06:56:22.435Z,6.32
2022-10-09T06:58:51.454Z,2.80
2022-10-09T07:01:19.180Z,2.78
2022-10-09T07:03:48.475Z,2.60
2022-10-09T07:06:20.305Z,2.30
2022-10-09T07:08:55.425Z,2.60
2022-10-09T07:11:43.199Z,2.42
2022-10-09T07:14:11.459Z,3.08
2022-10-09T07:16:40.638Z,3.20
2022-10-09T07:19:10.913Z,5.53
2022-10-09T07:21:39.539Z,4.95
2022-10-09T07:24:06.448Z,5.18
2022-10-09T07:26:35.625Z,10.77
2022-10-09T07:29:02.650Z,3.20
2022-10-09T07:31:29.185Z,2.75
2022-10-09T07:33:58.447Z,3.20
2022-10-09T07:36:25.855Z,3.42
2022-10-09T07:38:54.572Z,3.97
2022-10-09T07:41:22.105Z,2.33
2022-10-09T07:43:48.745Z,2.25
2022-10-09T07:46:17.568Z,3.03
2022-10-09T07:48:44.921Z,2.67
2022-10-09T07:51:19.004Z,2.50
2022-10-09T07:53:46.132Z,2.22
2022-10-09T07:56:24.002Z,2.42
2022-10-09T07:58:55.068Z,2.55
2022-10-09T08:01:22.936Z,3.10
2022-10-09T08:03:50.038Z,2.90
2022-10-09T08:06:18.154Z,2.88
2022-10-09T08:08:45.153Z,2.70
2022-10-09T08:11:16.335Z,3.00
2022-10-09T08:13:44.636Z,3.10
2022-10-09T08:16:11.480Z,2.95
2022-10-09T08:18:38.113Z,3.30
2022-10-09T08:21:07.968Z,2.90
2022-10-09T08:23:34.659Z,2.95
2022-10-09T08:26:01.255Z,2.97
2022-10-09T08:28:27.787Z,3.03
2022-10-09T08:30:54.275Z,2.70
2022-10-09T08:33:22.111Z,2.58
2022-10-09T08:38:44.784Z,2.55
2022-10-09T08:43:42.620Z,2.45
2022-10-09T08:46:51.647Z,2.50
2022-10-09T08:49:34.641Z,2.60
2022-10-09T08:52:21.449Z,2.00
2022-10-09T08:54:48.089Z,1.45
2022-10-09T08:57:16.581Z,1.80
2022-10-09T08:59:44.240Z,1.30
2022-10-09T09:02:41.077Z,1.23
2022-10-09T09:05:27.762Z,1.40
2022-10-09T09:08:19.815Z,1.30
2022-10-09T09:11:03.749Z,1.48
2022-10-09T09:13:45.518Z,1.20
2022-10-09T09:16:37.625Z,1.20
2022-10-09T09:19:20.696Z,1.33
2022-10-09T09:21:51.648Z,1.20
2022-10-09T09:24:35.684Z,1.40
2022-10-09T09:27:10.222Z,1.35
2022-10-09T09:29:42.811Z,1.10
2022-10-09T09:32:17.764Z,1.33
2022-10-09T09:34:44.569Z,1.00
2022-10-09T09:37:12.189Z,0.88
2022-10-09T09:42:25.344Z,1.17
2022-10-09T09:45:00.201Z,1.10
2022-10-09T09:47:34.450Z,1.27
2022-10-09T09:50:03.380Z,1.00
2022-10-09T09:52:34.742Z,0.90
2022-10-09T09:55:01.270Z,1.20
2022-10-09T09:57:39.091Z,1.30
2022-10-09T10:00:23.838Z,1.10
2022-10-09T10:03:01.198Z,1.30
2022-10-09T10:05:27.789Z,1.20
2022-10-09T10:07:54.301Z,1.25
2022-10-09T10:10:25.650Z,1.50
2022-10-09T10:12:52.760Z,1.40
2022-10-09T10:15:29.247Z,1.55
2022-10-09T10:18:02.087Z,1.55
2022-10-09T10:20:32.069Z,1.40
2022-10-09T10:22:59.854Z,1.08
2022-10-09T10:25:32.451Z,1.38
2022-10-09T10:28:13.282Z,1.20
2022-10-09T10:30:40.346Z,1.30
2022-10-09T10:33:29.008Z,1.15
2022-10-09T10:35:57.687Z,1.20
2022-10-09T10:38:39.395Z,1.25
2022-10-09T10:41:30.396Z,1.17
2022-10-09T10:44:15.658Z,1.30
2022-10-09T10:46:49.553Z,1.25
2022-10-09T10:49:20.306Z,1.30
2022-10-09T10:52:04.301Z,1.35
2022-10-09T10:54:37.641Z,1.33
2022-10-09T10:57:22.983Z,1.10
2022-10-09T11:00:09.484Z,1.33
2022-10-09T11:02:42.397Z,1.15
2022-10-09T11:05:26.897Z,1.10
2022-10-09T11:08:02.641Z,1.40
2022-10-09T11:11:10.721Z,1.17
2022-10-09T11:13:56.180Z,1.20
2022-10-09T11:16:22.619Z,1.25
2022-10-09T11:19:11.303Z,1.10
2022-10-09T11:21:47.707Z,1.20
2022-10-09T11:24:14.067Z,1.20
2022-10-09T11:27:06.236Z,1.02
2022-10-09T11:29:45.188Z,1.50
2022-10-09T11:32:24.295Z,1.30
2022-10-09T11:34:58.292Z,1.30
2022-10-09T11:37:30.144Z,1.70
2022-10-09T11:39:56.888Z,1.55
2022-10-09T11:42:25.488Z,1.42
2022-10-09T12:11:19.357Z,1.10
2022-10-09T12:13:55.634Z,1.15
2022-10-09T12:16:30.129Z,1.17
2022-10-09T12:18:58.932Z,1.10
2022-10-09T12:21:31.553Z,1.30
2022-10-09T12:23:58.449Z,1.23
2022-10-09T12:26:25.572Z,1.40
2022-10-09T12:28:56.284Z,1.30
2022-10-09T12:31:41.666Z,1.15
2022-10-09T12:34:27.843Z,1.58
2022-10-09T12:37:31.584Z,1.40
2022-10-09T12:40:08.068Z,1.25
2022-10-09T12:42:34.542Z,1.38
2022-10-09T12:45:01.743Z,1.30
2022-10-09T12:47:29.857Z,1.40
2022-10-09T12:49:58.747Z,1.15
2022-10-09T12:52:25.239Z,1.30
2022-10-09T12:54:51.665Z,1.23
2022-10-09T12:57:19.677Z,1.30
2022-10-09T12:59:49.559Z,1.23
2022-10-09T13:02:19.885Z,1.38
2022-10-09T13:04:58.632Z,1.17
2022-10-09T13:07:26.978Z,1.00
2022-10-09T13:10:02.784Z,1.30
2022-10-09T13:12:31.042Z,1.60
2022-10-09T13:20:12.774Z,1.02
2022-10-09T13:22:39.647Z,1.17
2022-10-09T13:25:06.741Z,1.30
2022-10-09T13:27:37.875Z,1.05
2022-10-09T13:30:06.093Z,1.40
2022-10-09T13:34:58.814Z,1.60
2022-10-09T13:37:26.542Z,1.17
2022-10-09T13:39:57.482Z,1.40
2022-10-09T13:42:26.890Z,1.30
2022-10-09T13:44:53.459Z,1.25
2022-10-09T13:47:24.215Z,1.30
2022-10-09T13:49:51.500Z,1.13
2022-10-09T13:52:18.010Z,1.23
2022-10-09T13:54:45.165Z,1.52
2022-10-09T13:57:11.849Z,1.10
2022-10-09T13:59:38.392Z,1.50
2022-10-09T14:02:04.884Z,1.92
2022-10-09T14:04:31.520Z,1.00
2022-10-09T14:06:57.984Z,1.00
2022-10-09T14:09:24.483Z,0.93
2022-10-09T14:11:50.900Z,1.08
2022-10-09T14:14:17.333Z,1.27
2022-10-09T14:16:43.986Z,1.20
2022-10-09T14:19:10.756Z,0.93
2022-10-09T14:21:37.509Z,1.00
2022-10-09T14:24:04.500Z,1.30
2022-10-09T14:26:31.416Z,1.00
2022-10-09T14:29:02.805Z,1.08
2022-10-09T14:31:30.183Z,1.48
2022-10-09T14:33:58.638Z,1.67
2022-10-09T14:36:25.724Z,1.23
2022-10-09T14:38:52.471Z,0.93
2022-10-09T14:41:19.889Z,1.05
2022-10-09T14:43:47.929Z,1.20
2022-10-09T14:46:17.842Z,1.40
2022-10-09T14:48:45.896Z,1.20
2022-10-09T14:51:15.052Z,1.33
2022-10-09T14:53:42.010Z,1.15
2022-10-09T14:56:12.305Z,1.20
2022-10-09T14:58:40.013Z,1.15
2022-10-09T15:01:07.205Z,1.20
2022-10-09T15:03:35.163Z,1.23
2022-10-09T15:06:06.698Z,1.00
2022-10-09T15:08:35.036Z,1.08
2022-10-09T15:11:02.498Z,1.30
2022-10-09T15:13:29.432Z,1.40
2022-10-09T15:16:14.005Z,0.90
2022-10-09T15:18:41.050Z,1.23
2022-10-09T15:21:13.121Z,1.40
2022-10-09T15:23:40.175Z,1.20
2022-10-09T15:26:06.836Z,1.17
2022-10-09T15:28:33.326Z,1.65
2022-10-09T15:31:01.150Z,1.60
2022-10-09T15:33:27.620Z,1.38
2022-10-09T15:35:54.014Z,1.55
2022-10-09T15:38:22.221Z,1.33
2022-10-09T15:40:51.502Z,1.73
2022-10-09T15:43:19.998Z,1.40
2022-10-09T15:45:47.377Z,1.38
2022-10-09T15:48:16.528Z,1.40
2022-10-09T15:50:46.257Z,1.25
2022-10-09T15:53:14.945Z,1.25
2022-10-09T15:55:45.861Z,1.20
2022-10-09T15:58:13.247Z,1.40
2022-10-09T16:00:41.910Z,1.33
2022-10-09T16:03:08.943Z,0.90
2022-10-09T16:05:44.241Z,1.67
2022-10-09T16:08:12.079Z,1.35
2022-10-09T16:10:49.047Z,1.17
2022-10-09T16:13:16.357Z,1.20
2022-10-09T16:15:49.644Z,2.17
2022-10-09T16:18:18.252Z,1.58
2022-10-09T16:20:45.031Z,1.13
2022-10-09T16:23:12.338Z,1.38
2022-10-09T16:25:39.734Z,1.50
2022-10-09T16:28:08.537Z,1.45
2022-10-09T16:30:42.850Z,2.22
2022-10-09T16:33:12.616Z,6.30
2022-10-09T16:35:39.535Z,6.55
2022-10-09T16:38:06.494Z,6.13
2022-10-09T16:40:57.471Z,3.50
2022-10-09T16:43:20.136Z,2.15
2022-10-09T16:45:46.571Z,2.22
2022-10-09T16:48:12.957Z,3.70
2022-10-09T16:50:41.313Z,3.83
2022-10-09T16:55:34.409Z,7.47
2022-10-09T16:58:00.890Z,9.25
2022-10-09T17:00:27.524Z,4.85
2022-10-09T17:02:54.023Z,4.72
2022-10-09T17:05:20.570Z,5.55
2022-10-09T17:07:47.300Z,7.15
2022-10-09T17:10:13.940Z,6.50
2022-10-09T17:12:40.308Z,5.47
2022-10-09T17:15:07.227Z,6.18
2022-10-09T17:17:33.783Z,4.85
2022-10-09T17:20:00.215Z,4.07
2022-10-09T17:22:26.604Z,3.60
2022-10-09T17:24:53.020Z,3.75
2022-10-09T17:27:19.499Z,4.40
2022-10-09T17:29:45.927Z,6.28
2022-10-09T17:32:12.347Z,4.97
2022-10-09T17:34:42.999Z,4.85
2022-10-09T17:37:09.397Z,4.57
2022-10-09T17:39:35.780Z,4.18
2022-10-09T17:42:02.192Z,5.03
2022-10-09T17:44:31.854Z,5.85
2022-10-09T17:46:58.310Z,9.82
2022-10-09T17:49:24.758Z,8.70
2022-10-09T17:51:52.653Z,4.78
2022-10-09T17:54:19.081Z,4.70
2022-10-09T17:56:45.606Z,4.80
2022-10-09T17:59:12.287Z,4.75
2022-10-09T18:01:39.108Z,4.32
2022-10-09T18:04:05.503Z,4.53
2022-10-09T18:06:33.478Z,4.72
2022-10-09T18:09:00.408Z,4.28
2022-10-09T18:11:28.449Z,4.05
2022-10-09T18:13:55.014Z,3.85
2022-10-09T18:16:31.380Z,3.80
2022-10-09T18:19:07.786Z,4.90
2022-10-09T18:21:35.300Z,6.07
2022-10-09T18:24:01.849Z,5.15
2022-10-09T18:26:28.349Z,4.32
2022-10-09T18:28:54.793Z,4.43
2022-10-09T18:31:23.592Z,4.60
2022-10-09T18:33:50.381Z,3.58
2022-10-09T18:36:19.740Z,2.92
2022-10-09T18:38:49.177Z,3.63
2022-10-09T18:41:16.505Z,3.75
2022-10-09T18:43:42.924Z,3.30
2022-10-09T18:46:09.600Z,3.47
2022-10-09T18:48:39.509Z,2.85
2022-10-09T18:51:09.027Z,2.70
2022-10-09T18:53:38.054Z,2.47
2022-10-09T18:56:06.307Z,1.98
2022-10-09T18:58:33.758Z,2.10
2022-10-09T19:01:03.322Z,1.92
2022-10-09T19:03:31.867Z,2.20
2022-10-09T19:05:58.264Z,1.90
2022-10-09T19:08:24.688Z,1.83
2022-10-09T19:10:52.904Z,1.90
2022-10-09T19:13:20.609Z,1.65
2022-10-09T19:15:55.253Z,1.70
2022-10-09T19:18:22.466Z,1.50
2022-10-09T19:20:49.471Z,1.58
2022-10-09T19:23:18.999Z,2.55
2022-10-09T19:25:53.184Z,1.67
2022-10-09T19:28:20.785Z,1.90
2022-10-09T19:30:48.222Z,2.17
2022-10-09T19:33:15.615Z,1.80
2022-10-09T19:36:00.176Z,1.90
2022-10-09T19:38:27.785Z,1.83
2022-10-09T19:40:54.373Z,1.77
2022-10-09T19:43:25.083Z,1.80
2022-10-09T19:46:09.521Z,1.45
2022-10-09T19:48:36.886Z,1.42
2022-10-09T19:51:08.771Z,1.45
2022-10-09T19:53:35.552Z,1.38
2022-10-09T19:56:02.898Z,1.30
2022-10-09T19:58:30.200Z,1.40
2022-10-09T20:00:56.612Z,1.48
2022-10-09T20:03:23.046Z,1.25
2022-10-09T20:05:49.439Z,1.20
2022-10-09T20:08:15.865Z,1.30
2022-10-09T20:10:42.262Z,1.15
2022-10-09T20:13:08.658Z,1.20
2022-10-09T20:15:35.011Z,1.30
2022-10-09T20:18:01.394Z,1.80
2022-10-09T20:20:28.012Z,1.63
2022-10-09T20:22:54.399Z,2.00
2022-10-09T20:25:20.934Z,2.55
2022-10-09T20:27:47.528Z,1.73
2022-10-09T20:30:13.946Z,1.80
2022-10-09T20:32:40.381Z,1.67
2022-10-09T20:35:07.343Z,1.88
2022-10-09T20:37:34.969Z,2.13
2022-10-09T20:40:01.723Z,3.88
2022-10-09T20:42:28.119Z,4.47
2022-10-09T20:44:54.511Z,4.63
2022-10-09T20:47:20.894Z,4.55
2022-10-09T20:49:48.182Z,1.77
2022-10-09T20:52:14.569Z,1.90
2022-10-09T20:54:40.953Z,1.73
2022-10-09T20:57:07.352Z,1.75
2022-10-09T20:59:33.805Z,2.08
2022-10-09T21:02:00.195Z,1.88
2022-10-09T21:04:26.582Z,2.15
2022-10-09T21:06:58.348Z,2.33
2022-10-09T21:09:27.477Z,2.00
2022-10-09T21:11:56.228Z,2.10
2022-10-09T21:14:22.644Z,2.00
2022-10-09T21:16:49.099Z,1.50
2022-10-09T21:19:15.945Z,1.60
2022-10-09T21:21:45.318Z,1.67
2022-10-09T21:24:13.930Z,1.45
2022-10-09T21:26:40.976Z,1.55
2022-10-09T21:29:07.471Z,1.60
2022-10-09T21:31:34.283Z,1.80
2022-10-09T21:34:11.916Z,2.10
2022-10-09T21:36:47.124Z,1.83
2022-10-09T21:39:25.080Z,2.00
2022-10-09T21:41:51.535Z,1.70
2022-10-09T21:44:17.984Z,1.83
2022-10-09T21:46:44.529Z,1.80
2022-10-09T21:49:22.946Z,1.52
2022-10-09T21:51:49.698Z,1.73
2022-10-09T21:54:16.634Z,2.10
2022-10-09T21:56:43.270Z,1.75
2022-10-09T21:59:09.974Z,1.60
2022-10-09T22:01:36.423Z,1.60
2022-10-09T22:04:02.952Z,1.50
2022-10-09T22:06:29.372Z,1.80
2022-10-09T22:08:55.959Z,1.90
2022-10-09T22:11:22.450Z,2.20
2022-10-09T22:13:49.090Z,1.83
2022-10-09T22:16:15.791Z,1.80
2022-10-09T22:18:42.565Z,1.83
2022-10-09T22:21:14.021Z,1.95
2022-10-09T22:23:41.232Z,2.35
2022-10-09T22:26:13.500Z,2.13
2022-10-09T22:28:39.947Z,1.90
2022-10-09T22:31:14.759Z,2.17
2022-10-09T22:33:41.791Z,2.10
2022-10-09T22:36:17.869Z,1.90
2022-10-09T22:38:44.650Z,2.20
2022-10-09T22:41:17.120Z,2.20
2022-10-09T22:43:49.038Z,1.30
2022-10-09T22:46:18.633Z,1.77
2022-10-09T22:48:47.213Z,1.70
2022-10-09T22:53:43.139Z,1.63
2022-10-09T22:56:21.947Z,1.70
2022-10-09T22:58:51.717Z,1.58
2022-10-09T23:01:31.479Z,1.55
2022-10-09T23:03:59.948Z,1.40
2022-10-09T23:06:26.688Z,1.70
2022-10-09T23:08:53.520Z,1.55
2022-10-09T23:11:21.535Z,1.65
2022-10-09T23:13:53.973Z,1.50
2022-10-09T23:16:21.320Z,1.60
2022-10-09T23:18:52.642Z,1.35
2022-10-09T23:21:22.288Z,1.50
2022-10-09T23:23:50.053Z,1.73
2022-10-09T23:26:18.872Z,1.98
2022-10-09T23:28:55.962Z,1.58
2022-10-09T23:31:22.981Z,1.70
2022-10-09T23:33:49.403Z,1.45
2022-10-09T23:36:20.292Z,1.48
2022-10-09T23:38:47.426Z,1.50
2022-10-09T23:41:17.052Z,1.60
2022-10-09T23:43:45.219Z,1.50
2022-10-09T23:46:14.313Z,1.70
2022-10-09T23:48:41.298Z,1.50
2022-10-09T23:51:07.837Z,1.40
2022-10-09T23:53:34.505Z,1.30
2022-10-09T23:56:01.432Z,1.50
2022-10-09T23:58:27.931Z,1.42
